Time;durP1;ratioP1;P1;durP2;ratioP2;P2;SDS_P1;SDS_P2;PMS_P1;PMS_P2;Temp;Humidity;BMP_temperature;BMP_pressure;BME280_temperature;BME280_humidity;BME280_pressure;Samples;Min_cycle;Max_cycle;Signal;HPM_P1;HPM_P2
2023/06/05 00:02:00;;;;;;;8.13;3.63;;;18.30;99.90;;;;;;5000876;28;20026;-69
2023/06/05 00:04:27;;;;;;;4.75;3.10;;;18.20;99.90;;;;;;5004349;28;20018;-69
2023/06/05 00:06:53;;;;;;;3.95;3.00;;;18.20;99.90;;;;;;5000808;28;20030;-70
2023/06/05 00:09:19;;;;;;;5.43;2.97;;;18.20;99.90;;;;;;5000599;28;20029;-70
2023/06/05 00:11:45;;;;;;;6.60;3.60;;;18.10;99.90;;;;;;5000340;28;20022;-69
2023/06/05 00:14:11;;;;;;;4.30;3.25;;;18.10;99.90;;;;;;4983031;28;20022;-69
2023/06/05 00:16:37;;;;;;;4.57;2.90;;;18.10;99.90;;;;;;5000689;28;20023;-70
2023/06/05 00:19:03;;;;;;;4.32;3.15;;;18.00;99.90;;;;;;5000554;28;20566;-69
2023/06/05 00:21:29;;;;;;;4.18;3.33;;;18.10;99.90;;;;;;4983129;28;20040;-69
2023/06/05 00:23:55;;;;;;;4.22;2.90;;;18.00;99.90;;;;;;5000293;28;20026;-70
2023/06/05 00:26:21;;;;;;;5.30;3.45;;;18.10;99.90;;;;;;5000184;28;20027;-69
2023/06/05 00:28:47;;;;;;;8.02;3.67;;;18.00;99.90;;;;;;5000310;28;20991;-69
2023/06/05 00:31:13;;;;;;;3.83;3.13;;;18.00;99.90;;;;;;5000323;28;20027;-69
2023/06/05 00:33:39;;;;;;;5.93;3.45;;;17.90;99.90;;;;;;5000190;28;20364;-69
2023/06/05 00:36:05;;;;;;;5.30;3.00;;;17.90;99.90;;;;;;5000131;28;20041;-69
2023/06/05 00:38:31;;;;;;;7.75;3.53;;;17.90;99.90;;;;;;5000003;28;20026;-69
2023/06/05 00:40:57;;;;;;;8.35;3.42;;;17.90;99.90;;;;;;5000135;28;20030;-70
2023/06/05 00:43:22;;;;;;;3.80;3.13;;;17.80;99.90;;;;;;4999839;28;20394;-69
2023/06/05 00:45:50;;;;;;;4.18;3.38;;;17.80;99.90;;;;;;5000008;28;20094;-70
2023/06/05 00:48:16;;;;;;;3.60;3.22;;;17.80;99.90;;;;;;4999929;28;20106;-69
2023/06/05 00:50:42;;;;;;;5.00;3.50;;;17.80;99.90;;;;;;5000152;28;20058;-69
2023/06/05 00:53:08;;;;;;;7.50;3.15;;;17.80;99.90;;;;;;4982413;28;20014;-70
2023/06/05 00:55:34;;;;;;;5.68;3.80;;;17.70;99.90;;;;;;4999359;28;20101;-69
2023/06/05 00:58:03;;;;;;;4.78;3.95;;;17.70;99.90;;;;;;4999354;28;20043;-70
2023/06/05 01:00:29;;;;;;;7.60;4.00;;;17.60;99.90;;;;;;4999709;28;20081;-69
2023/06/05 01:02:58;;;;;;;5.22;4.10;;;17.60;99.90;;;;;;4999689;28;20022;-70
2023/06/05 01:05:24;;;;;;;7.07;4.15;;;17.60;99.90;;;;;;5002775;28;20026;-70
2023/06/05 01:07:50;;;;;;;7.28;4.28;;;17.50;99.90;;;;;;4999432;28;20018;-69
2023/06/05 01:10:16;;;;;;;5.07;4.13;;;17.50;99.90;;;;;;4999463;28;20034;-70
2023/06/05 01:12:45;;;;;;;7.07;3.97;;;17.50;99.90;;;;;;4999289;28;20502;-70
2023/06/05 01:15:12;;;;;;;5.15;3.70;;;17.50;99.90;;;;;;4999545;28;20038;-69
2023/06/05 01:17:38;;;;;;;5.53;4.03;;;17.40;99.90;;;;;;4989564;28;20006;-70
2023/06/05 01:20:08;;;;;;;5.07;3.70;;;17.40;99.90;;;;;;4999417;28;20071;-70
2023/06/05 01:22:34;;;;;;;6.22;5.00;;;17.40;99.90;;;;;;4999576;28;20027;-69
2023/06/05 01:25:01;;;;;;;7.00;4.47;;;17.40;99.90;;;;;;4999139;28;20161;-69
2023/06/05 01:27:39;;;;;;;6.38;4.03;;;17.40;99.90;;;;;;4981835;28;20023;-70
2023/06/05 01:30:16;;;;;;;5.00;4.15;;;17.40;99.90;;;;;;4998948;28;20035;-69
2023/06/05 01:33:12;;;;;;;7.93;4.70;;;17.40;99.90;;;;;;4981739;28;20070;-70
2023/06/05 01:35:39;;;;;;;5.32;4.53;;;17.40;99.90;;;;;;4990607;28;20026;-70
2023/06/05 01:38:09;;;;;;;5.55;4.03;;;17.40;99.90;;;;;;4998937;28;20021;-70
2023/06/05 01:40:36;;;;;;;7.35;4.13;;;17.40;99.90;;;;;;4998916;28;20023;-69
2023/06/05 01:43:03;;;;;;;8.75;4.82;;;17.40;99.90;;;;;;4998596;28;20042;-69
2023/06/05 01:45:30;;;;;;;6.32;4.32;;;17.40;99.90;;;;;;4999318;28;20031;-70
2023/06/05 01:47:56;;;;;;;6.55;4.32;;;17.40;99.90;;;;;;4998608;28;20450;-69
2023/06/05 01:50:22;;;;;;;6.65;4.70;;;17.40;99.90;;;;;;4998878;28;20084;-70
2023/06/05 01:52:49;;;;;;;8.10;4.43;;;17.40;99.90;;;;;;4998600;28;20050;-69
2023/06/05 01:55:19;;;;;;;7.05;4.20;;;17.40;99.90;;;;;;4998753;28;20430;-69
2023/06/05 01:57:45;;;;;;;9.32;5.53;;;17.40;99.90;;;;;;4998211;28;20097;-69
2023/06/05 02:00:15;;;;;;;7.55;4.30;;;17.40;99.90;;;;;;4998697;28;20553;-70
2023/06/05 02:02:45;;;;;;;5.55;4.40;;;17.40;99.90;;;;;;4998640;28;20105;-69
2023/06/05 02:05:14;;;;;;;9.18;5.25;;;17.30;99.90;;;;;;5001011;28;20093;-70
2023/06/05 02:07:43;;;;;;;7.75;4.32;;;17.30;99.90;;;;;;4997025;28;20050;-69
2023/06/05 02:10:09;;;;;;;6.32;4.30;;;17.40;99.90;;;;;;4998127;28;20030;-70
2023/06/05 02:12:37;;;;;;;8.07;4.82;;;17.30;99.90;;;;;;4998409;28;20077;-70
2023/06/05 02:15:03;;;;;;;8.23;4.50;;;17.30;99.90;;;;;;4998496;28;20089;-69
2023/06/05 02:17:29;;;;;;;9.02;4.78;;;17.30;99.90;;;;;;4998423;28;20022;-69
2023/06/05 02:19:55;;;;;;;8.80;4.90;;;17.30;99.90;;;;;;4998224;28;20026;-69
2023/06/05 02:22:23;;;;;;;5.80;4.93;;;17.20;99.90;;;;;;4980947;28;20126;-70
2023/06/05 02:24:51;;;;;;;9.00;5.10;;;17.20;99.90;;;;;;4998332;28;20395;-69
2023/06/05 02:27:17;;;;;;;8.45;5.55;;;17.20;99.90;;;;;;4998046;28;20149;-69
2023/06/05 02:29:43;;;;;;;10.13;5.47;;;17.10;99.90;;;;;;4998129;28;20126;-69
2023/06/05 02:32:09;;;;;;;6.93;5.13;;;17.10;99.90;;;;;;4998140;28;20455;-69
2023/06/05 02:34:35;;;;;;;5.93;5.32;;;17.10;99.90;;;;;;4998078;28;20442;-70
2023/06/05 02:37:02;;;;;;;9.35;5.35;;;17.10;99.90;;;;;;4981386;28;20022;-70
2023/06/05 02:39:30;;;;;;;6.22;5.30;;;17.10;99.90;;;;;;4997998;28;20059;-70
2023/06/05 02:41:56;;;;;;;12.52;6.32;;;17.00;99.90;;;;;;4997538;28;20018;-70
2023/06/05 02:44:22;;;;;;;7.03;5.50;;;16.90;99.90;;;;;;4980489;28;20023;-69
2023/06/05 02:46:48;;;;;;;9.68;5.13;;;16.90;99.90;;;;;;4997793;28;20052;-69
2023/06/05 02:49:13;;;;;;;10.73;5.97;;;16.80;99.90;;;;;;4997678;28;20034;-70
2023/06/05 02:51:39;;;;;;;7.28;5.90;;;16.80;99.90;;;;;;4997700;28;20041;-69
2023/06/05 02:54:05;;;;;;;5.63;5.03;;;16.80;99.90;;;;;;4997941;28;20022;-69
2023/06/05 02:56:31;;;;;;;6.95;5.40;;;16.80;99.90;;;;;;4997399;28;20506;-70
2023/06/05 02:58:56;;;;;;;8.65;5.43;;;16.90;99.90;;;;;;4997596;28;20025;-69
2023/06/05 03:01:25;;;;;;;8.77;5.57;;;16.80;99.90;;;;;;4997140;28;20030;-69
2023/06/05 03:03:52;;;;;;;9.63;5.80;;;16.80;99.90;;;;;;5000831;28;20026;-69
2023/06/05 03:06:18;;;;;;;10.52;5.78;;;16.80;99.90;;;;;;5000921;28;20033;-70
2023/06/05 03:08:44;;;;;;;13.55;6.10;;;16.80;99.90;;;;;;4997051;28;20027;-69
2023/06/05 03:11:10;;;;;;;7.78;5.80;;;16.70;99.90;;;;;;4997618;28;20050;-69
2023/06/05 03:13:36;;;;;;;8.52;5.80;;;16.70;99.90;;;;;;4997276;28;20029;-69
2023/06/05 03:16:02;;;;;;;7.57;6.70;;;16.70;99.90;;;;;;4997603;28;20487;-70
2023/06/05 03:18:28;;;;;;;9.73;6.65;;;16.70;99.90;;;;;;4997135;28;20522;-69
2023/06/05 03:20:57;;;;;;;8.07;6.57;;;16.70;99.90;;;;;;4997511;28;20076;-69
2023/06/05 03:23:28;;;;;;;9.57;6.30;;;16.70;99.90;;;;;;4997512;28;20026;-69
2023/06/05 03:25:54;;;;;;;9.32;7.00;;;16.70;99.90;;;;;;4997125;28;20500;-70
2023/06/05 03:28:21;;;;;;;7.75;6.45;;;16.70;99.90;;;;;;4997174;28;20042;-69
2023/06/05 03:30:47;;;;;;;7.03;5.78;;;16.70;99.90;;;;;;4976853;28;20085;-70
2023/06/05 03:33:14;;;;;;;7.38;5.78;;;16.80;99.90;;;;;;4995056;28;20018;-70
2023/06/05 03:35:42;;;;;;;9.85;6.60;;;16.80;99.90;;;;;;4997383;28;20034;-70
2023/06/05 03:38:08;;;;;;;6.97;6.15;;;16.70;99.90;;;;;;4997385;28;20023;-69
2023/06/05 03:40:34;;;;;;;7.40;5.85;;;16.70;99.90;;;;;;4996963;28;20027;-70
2023/06/05 03:43:00;;;;;;;7.75;6.25;;;16.70;99.90;;;;;;4997131;28;20513;-70
2023/06/05 03:45:27;;;;;;;7.68;6.45;;;16.70;99.90;;;;;;4997267;28;20399;-70
2023/06/05 03:47:54;;;;;;;8.70;6.10;;;16.60;99.90;;;;;;4997074;28;20388;-69
2023/06/05 03:50:20;;;;;;;7.20;5.85;;;16.50;99.90;;;;;;4997191;28;20030;-69
2023/06/05 03:52:52;;;;;;;9.93;6.35;;;16.50;99.90;;;;;;4997107;28;20018;-69
2023/06/05 03:55:19;;;;;;;7.85;6.82;;;16.50;99.90;;;;;;4996975;28;20049;-70
2023/06/05 03:57:47;;;;;;;8.07;6.07;;;16.50;99.90;;;;;;4996837;28;20043;-70
2023/06/05 04:00:14;;;;;;;10.23;6.40;;;16.40;99.90;;;;;;4979397;28;20117;-70
2023/06/05 04:02:40;;;;;;;10.35;7.28;;;16.40;99.90;;;;;;4991042;28;20022;-70
2023/06/05 04:05:06;;;;;;;10.75;6.28;;;16.30;99.90;;;;;;5003110;28;20467;-69
2023/06/05 04:07:32;;;;;;;11.57;7.15;;;16.30;99.90;;;;;;4997183;28;20022;-70
2023/06/05 04:09:57;;;;;;;9.45;6.55;;;16.30;99.90;;;;;;4996863;28;20023;-70
2023/06/05 04:12:23;;;;;;;11.45;6.45;;;16.30;99.90;;;;;;4996880;28;20046;-70
2023/06/05 04:14:49;;;;;;;12.13;6.97;;;16.30;99.90;;;;;;4979421;28;20026;-70
2023/06/05 04:17:15;;;;;;;10.02;6.70;;;16.20;99.90;;;;;;4997034;28;20368;-70
2023/06/05 04:19:40;;;;;;;11.70;6.82;;;16.20;99.90;;;;;;4996794;28;20018;-70
2023/06/05 04:22:06;;;;;;;7.38;6.15;;;16.10;99.90;;;;;;4997211;28;20501;-70
2023/06/05 04:24:32;;;;;;;9.13;6.45;;;16.10;99.90;;;;;;4996970;28;20117;-70
2023/06/05 04:27:00;;;;;;;11.38;6.95;;;16.10;99.90;;;;;;4972338;28;20054;-70
2023/06/05 04:29:26;;;;;;;10.23;6.32;;;16.10;99.90;;;;;;4997736;28;20034;-69
2023/06/05 04:31:52;;;;;;;11.35;7.07;;;16.10;99.90;;;;;;5000574;28;20022;-70
2023/06/05 04:34:19;;;;;;;11.75;8.02;;;16.20;99.90;;;;;;4999477;28;20038;-70
2023/06/05 04:36:45;;;;;;;10.40;7.43;;;16.20;99.90;;;;;;5000107;28;20015;-70
2023/06/05 04:39:18;;;;;;;12.50;7.82;;;16.20;99.90;;;;;;5000107;28;20133;-69
2023/06/05 04:41:47;;;;;;;11.88;7.50;;;16.30;99.90;;;;;;4999930;28;20018;-70
2023/06/05 04:44:16;;;;;;;10.18;6.88;;;16.30;99.90;;;;;;4999914;28;20022;-70
2023/06/05 04:46:43;;;;;;;10.40;7.03;;;16.30;99.90;;;;;;5000304;28;20044;-70
2023/06/05 04:49:11;;;;;;;13.63;7.55;;;16.40;99.90;;;;;;4982270;28;20554;-70
2023/06/05 04:51:36;;;;;;;8.70;7.13;;;16.50;99.90;;;;;;5000161;28;20578;-70
2023/06/05 04:54:03;;;;;;;10.05;7.65;;;16.50;99.90;;;;;;4999949;28;20485;-70
2023/06/05 04:56:29;;;;;;;11.38;7.38;;;16.60;99.90;;;;;;4985794;28;20559;-70
2023/06/05 04:58:55;;;;;;;8.55;6.57;;;16.70;99.90;;;;;;5019518;28;20030;-70
2023/06/05 05:01:21;;;;;;;9.90;6.63;;;16.70;99.90;;;;;;5019313;28;20053;-70
2023/06/05 05:03:48;;;;;;;10.13;7.05;;;16.90;99.90;;;;;;5021873;28;20414;-69
2023/06/05 05:06:17;;;;;;;9.27;6.90;;;17.00;99.90;;;;;;5020061;28;20022;-70
2023/06/05 05:08:48;;;;;;;6.85;6.15;;;17.10;99.90;;;;;;5019107;28;20026;-70
2023/06/05 05:11:14;;;;;;;11.48;6.93;;;17.20;99.90;;;;;;5019309;28;20553;-70
2023/06/05 05:13:40;;;;;;;12.35;7.07;;;17.20;99.90;;;;;;5018876;28;20018;-70
2023/06/05 05:16:07;;;;;;;7.57;6.78;;;17.30;99.90;;;;;;5019568;28;20033;-70
2023/06/05 05:18:37;;;;;;;7.03;5.35;;;17.30;99.90;;;;;;5017823;28;20010;-71
2023/06/05 05:21:04;;;;;;;12.00;6.30;;;17.50;99.90;;;;;;5019232;28;20478;-70
2023/06/05 05:23:31;;;;;;;6.70;5.90;;;17.60;99.90;;;;;;5018897;28;20497;-70
2023/06/05 05:25:56;;;;;;;8.32;6.55;;;17.70;99.90;;;;;;5001156;28;20026;-70
2023/06/05 05:28:22;;;;;;;8.27;6.28;;;17.80;99.90;;;;;;5018574;28;20024;-70
2023/06/05 05:30:48;;;;;;;7.55;5.72;;;17.90;99.90;;;;;;5019158;28;20386;-69
2023/06/05 05:33:14;;;;;;;8.57;6.05;;;18.00;99.90;;;;;;5018751;28;20072;-70
2023/06/05 05:35:40;;;;;;;8.45;5.97;;;18.00;99.90;;;;;;5018853;28;20018;-70
2023/06/05 05:38:06;;;;;;;10.38;7.03;;;18.10;99.90;;;;;;5018575;28;20022;-69
2023/06/05 05:40:32;;;;;;;10.63;6.38;;;18.20;99.90;;;;;;5018709;28;20026;-69
2023/06/05 05:42:57;;;;;;;8.18;5.95;;;18.20;99.90;;;;;;5018297;28;20073;-69
2023/06/05 05:45:23;;;;;;;7.75;6.10;;;18.20;99.90;;;;;;5018794;28;20117;-70
2023/06/05 05:47:49;;;;;;;10.57;5.65;;;18.30;99.90;;;;;;5018467;28;20068;-69
2023/06/05 05:50:15;;;;;;;9.23;5.13;;;18.30;99.90;;;;;;5018579;28;20026;-69
2023/06/05 05:52:43;;;;;;;6.40;5.70;;;18.40;99.90;;;;;;5018351;28;20093;-69
2023/06/05 05:55:09;;;;;;;7.25;5.97;;;18.30;99.90;;;;;;5018521;28;20058;-70
2023/06/05 05:57:34;;;;;;;9.52;5.97;;;18.30;99.90;;;;;;5008774;28;20050;-69
2023/06/05 06:00:01;;;;;;;5.85;4.97;;;18.40;99.90;;;;;;5005095;28;20050;-70
2023/06/05 06:02:27;;;;;;;7.22;5.88;;;18.60;99.90;;;;;;4981109;28;20062;-70
2023/06/05 06:04:53;;;;;;;7.00;5.63;;;18.70;99.90;;;;;;4998411;28;20451;-70
2023/06/05 06:07:19;;;;;;;9.55;5.72;;;18.80;99.90;;;;;;4998614;28;20030;-69
2023/06/05 06:09:46;;;;;;;7.30;4.70;;;18.90;99.90;;;;;;4998452;28;20114;-69
2023/06/05 06:12:11;;;;;;;10.43;3.75;;;19.10;99.90;;;;;;4998380;28;20042;-69
2023/06/05 06:14:37;;;;;;;7.75;4.20;;;19.10;99.90;;;;;;4998434;28;20018;-69
2023/06/05 06:17:05;;;;;;;6.60;4.38;;;19.20;99.90;;;;;;4998348;28;20033;-69
2023/06/05 06:19:32;;;;;;;5.32;4.15;;;19.30;99.90;;;;;;4998223;28;20031;-69
2023/06/05 06:21:58;;;;;;;6.40;3.95;;;19.50;99.90;;;;;;4980825;28;20509;-70
2023/06/05 06:24:24;;;;;;;8.48;4.05;;;19.70;99.90;;;;;;4998312;28;20026;-69
2023/06/05 06:26:52;;;;;;;6.50;4.43;;;19.80;99.90;;;;;;4980606;28;20184;-69
2023/06/05 06:29:23;;;;;;;8.27;3.60;;;20.00;99.90;;;;;;4998212;28;20029;-70
2023/06/05 06:31:49;;;;;;;5.72;3.72;;;20.10;99.90;;;;;;4998011;28;20434;-70
2023/06/05 06:34:16;;;;;;;4.65;3.92;;;20.20;99.90;;;;;;4998245;28;20387;-70
2023/06/05 06:36:43;;;;;;;8.25;3.88;;;20.20;99.90;;;;;;4998339;28;20030;-69
2023/06/05 06:39:10;;;;;;;5.20;4.53;;;20.20;99.90;;;;;;4997832;28;20080;-69
2023/06/05 06:41:36;;;;;;;4.82;3.38;;;20.00;99.90;;;;;;4997622;28;20513;-69
2023/06/05 06:44:02;;;;;;;4.95;3.55;;;19.90;99.90;;;;;;4997798;28;20037;-69
2023/06/05 06:46:28;;;;;;;6.75;3.85;;;19.80;99.90;;;;;;4998192;28;20079;-69
2023/06/05 06:48:54;;;;;;;4.93;3.60;;;19.80;99.90;;;;;;4997926;28;20057;-69
2023/06/05 06:51:21;;;;;;;4.75;3.50;;;19.80;99.90;;;;;;4997707;28;20094;-68
2023/06/05 06:53:48;;;;;;;9.73;4.20;;;19.70;99.90;;;;;;4997516;28;20147;-69
2023/06/05 06:56:15;;;;;;;7.43;4.35;;;19.60;99.90;;;;;;4997392;28;20594;-70
2023/06/05 06:58:42;;;;;;;5.68;4.03;;;19.60;99.90;;;;;;4996176;28;20042;-69
2023/06/05 07:01:08;;;;;;;9.80;4.68;;;19.70;99.90;;;;;;4989925;28;20022;-69
2023/06/05 07:03:35;;;;;;;6.75;4.45;;;19.80;99.90;;;;;;4980857;28;20033;-70
2023/06/05 07:06:01;;;;;;;4.95;3.83;;;20.00;99.90;;;;;;4999182;28;20474;-69
2023/06/05 07:08:26;;;;;;;6.43;3.83;;;20.10;99.90;;;;;;4980030;28;20031;-69
2023/06/05 07:10:56;;;;;;;4.20;3.80;;;20.10;99.90;;;;;;4997473;28;20037;-69
2023/06/05 07:13:22;;;;;;;7.30;3.97;;;20.30;99.90;;;;;;4997196;28;20498;-69
2023/06/05 07:15:48;;;;;;;6.40;3.40;;;20.50;99.90;;;;;;4986150;28;20101;-69
2023/06/05 07:18:14;;;;;;;9.70;3.92;;;20.80;99.90;;;;;;4997417;28;20029;-69
2023/06/05 07:20:40;;;;;;;5.25;4.47;;;21.00;99.90;;;;;;4997555;28;20367;-69
2023/06/05 07:23:06;;;;;;;6.68;3.65;;;21.20;99.90;;;;;;4997530;28;20109;-70
2023/06/05 07:25:31;;;;;;;4.80;4.10;;;21.50;99.90;;;;;;4979796;28;20050;-69
2023/06/05 07:27:59;;;;;;;7.72;3.53;;;21.70;99.90;;;;;;4997458;28;20030;-69
2023/06/05 07:30:26;;;;;;;6.40;4.15;;;21.80;99.90;;;;;;4996273;28;20023;-69
2023/06/05 07:32:52;;;;;;;5.85;4.28;;;21.60;99.90;;;;;;4993976;28;20027;-69
2023/06/05 07:35:17;;;;;;;6.18;3.90;;;21.60;99.90;;;;;;4979970;28;20072;-70
2023/06/05 07:37:43;;;;;;;5.00;4.30;;;21.90;99.90;;;;;;4997133;28;20084;-69
2023/06/05 07:40:10;;;;;;;7.82;5.03;;;22.00;99.90;;;;;;4997443;28;20030;-69
2023/06/05 07:42:35;;;;;;;5.45;4.43;;;22.10;99.90;;;;;;4996953;28;20026;-69
2023/06/05 07:45:01;;;;;;;7.05;5.10;;;22.20;99.90;;;;;;4997395;28;20030;-69
2023/06/05 07:47:27;;;;;;;10.00;4.72;;;22.00;99.90;;;;;;4997091;28;20394;-69
2023/06/05 07:50:00;;;;;;;8.00;5.18;;;21.90;99.90;;;;;;4997307;28;20509;-69
2023/06/05 07:52:27;;;;;;;6.70;4.53;;;22.00;99.90;;;;;;4979669;28;20026;-69
2023/06/05 07:54:53;;;;;;;5.85;4.50;;;22.10;99.90;;;;;;4997190;28;20022;-69
2023/06/05 07:57:19;;;;;;;9.10;5.78;;;22.30;99.90;;;;;;4991362;28;20058;-69
2023/06/05 07:59:46;;;;;;;7.45;4.68;;;22.20;99.90;;;;;;4997320;28;20018;-69
2023/06/05 08:02:12;;;;;;;6.28;4.32;;;22.30;99.90;;;;;;4996916;28;20037;-69
2023/06/05 08:04:39;;;;;;;5.53;4.55;;;22.50;99.90;;;;;;4998657;28;20030;-69
2023/06/05 08:07:05;;;;;;;8.93;5.07;;;22.50;99.90;;;;;;5000859;28;20084;-69
2023/06/05 08:09:30;;;;;;;7.57;4.65;;;22.40;99.90;;;;;;5000814;28;20022;-70
2023/06/05 08:11:56;;;;;;;9.27;4.82;;;22.20;99.90;;;;;;5000488;28;20101;-69
2023/06/05 08:14:22;;;;;;;8.20;4.80;;;22.30;99.90;;;;;;4999532;28;20112;-70
2023/06/05 08:16:47;;;;;;;6.53;4.65;;;22.60;99.90;;;;;;5000632;28;20019;-69
2023/06/05 08:19:13;;;;;;;5.80;4.70;;;22.70;99.90;;;;;;5000895;28;20095;-69
2023/06/05 08:21:39;;;;;;;7.80;4.45;;;22.90;99.90;;;;;;5000687;28;20110;-69
2023/06/05 08:24:04;;;;;;;11.20;4.38;;;23.10;99.90;;;;;;5000326;28;20109;-70
2023/06/05 08:26:31;;;;;;;11.25;5.80;;;23.30;99.90;;;;;;4982713;28;20538;-70
2023/06/05 08:28:56;;;;;;;6.35;4.25;;;23.10;99.90;;;;;;5000368;28;20539;-69
2023/06/05 08:31:23;;;;;;;6.63;4.20;;;22.90;99.90;;;;;;5000453;28;20054;-69
2023/06/05 08:33:49;;;;;;;11.18;4.63;;;22.80;99.90;;;;;;5000425;28;20431;-69
2023/06/05 08:36:16;;;;;;;6.50;4.40;;;22.60;99.90;;;;;;5000295;28;20019;-69
2023/06/05 08:38:42;;;;;;;5.47;4.78;;;22.60;99.90;;;;;;5000514;28;20033;-69
2023/06/05 08:41:10;;;;;;;6.72;4.38;;;22.50;99.90;;;;;;4999608;28;20026;-69
2023/06/05 08:43:44;;;;;;;5.28;4.20;;;22.60;99.90;;;;;;5000266;28;20041;-69
2023/06/05 08:46:11;;;;;;;7.90;4.38;;;22.70;99.90;;;;;;4982486;28;20030;-69
2023/06/05 08:48:48;;;;;;;6.68;4.38;;;22.80;99.90;;;;;;4977449;28;20018;-69
2023/06/05 08:51:15;;;;;;;7.40;4.63;;;22.80;99.90;;;;;;5003238;28;20026;-69
2023/06/05 08:53:48;;;;;;;5.65;4.28;;;22.70;99.90;;;;;;4982562;28;20026;-69
2023/06/05 08:56:14;;;;;;;5.65;4.05;;;22.90;99.90;;;;;;4999213;28;20022;-69
2023/06/05 08:58:43;;;;;;;5.22;3.53;;;23.20;99.90;;;;;;5000007;28;20019;-69
2023/06/05 09:01:09;;;;;;;5.13;4.32;;;23.10;99.90;;;;;;4991795;28;20356;-69
2023/06/05 09:03:35;;;;;;;6.20;4.30;;;23.00;99.90;;;;;;4982991;28;20045;-69
2023/06/05 09:06:03;;;;;;;5.05;3.60;;;23.10;99.90;;;;;;4992550;28;20399;-69
2023/06/05 09:08:32;;;;;;;5.93;3.83;;;23.10;99.90;;;;;;4999599;28;20507;-69
2023/06/05 09:11:19;;;;;;;6.00;3.70;;;23.30;99.90;;;;;;4999232;28;20030;-69
2023/06/05 09:13:46;;;;;;;8.43;4.03;;;23.30;99.90;;;;;;4999420;28;20034;-69
2023/06/05 09:16:12;;;;;;;5.65;3.78;;;23.40;99.90;;;;;;4990578;28;20364;-69
2023/06/05 09:18:57;;;;;;;10.93;5.13;;;23.50;99.90;;;;;;4998823;28;20109;-68
2023/06/05 09:21:32;;;;;;;6.53;3.97;;;23.40;99.90;;;;;;4981498;28;20053;-69
2023/06/05 09:24:10;;;;;;;6.30;4.10;;;23.40;99.90;;;;;;4993263;28;20434;-69
2023/06/05 09:26:50;;;;;;;7.65;4.72;;;24.00;99.90;;;;;;4995941;28;20153;-69
2023/06/05 09:29:23;;;;;;;5.30;4.00;;;24.20;99.90;;;;;;4979837;28;20065;-69
2023/06/05 09:31:50;;;;;;;8.23;3.95;;;24.30;99.90;;;;;;4998511;28;20019;-70
2023/06/05 09:34:36;;;;;;;4.55;3.70;;;24.40;99.90;;;;;;4999159;28;20061;-69
2023/06/05 09:37:04;;;;;;;4.97;3.58;;;24.50;99.90;;;;;;4999109;28;20105;-69
2023/06/05 09:39:30;;;;;;;4.35;3.42;;;24.60;99.90;;;;;;4999099;28;20038;-69
2023/06/05 09:41:57;;;;;;;5.80;3.85;;;24.70;99.90;;;;;;4981144;28;20029;-69
2023/06/05 09:44:24;;;;;;;5.18;4.03;;;24.80;99.90;;;;;;4998853;28;20031;-69
2023/06/05 09:47:05;;;;;;;5.13;3.25;;;24.80;99.90;;;;;;4998624;28;20085;-69
2023/06/05 09:49:31;;;;;;;;;;;25.00;99.90;;;;;;4998907;28;20026;-70
2023/06/05 09:51:59;;;;;;;5.85;4.03;;;25.10;99.90;;;;;;4998570;28;19972;-70
2023/06/05 09:54:30;;;;;;;4.45;3.28;;;25.00;99.90;;;;;;4977876;28;20030;-69
2023/06/05 09:57:01;;;;;;;5.57;3.67;;;25.00;99.90;;;;;;4996646;28;20520;-69
2023/06/05 09:59:31;;;;;;;5.13;3.53;;;25.00;99.90;;;;;;4998647;28;20035;-69
2023/06/05 10:02:06;;;;;;;5.40;3.38;;;25.30;99.90;;;;;;4998247;28;20033;-69
2023/06/05 10:04:48;;;;;;;6.10;3.83;;;25.50;99.90;;;;;;5005960;28;20084;-69
2023/06/05 10:07:15;;;;;;;7.07;3.60;;;25.70;99.90;;;;;;4998519;28;20117;-69
2023/06/05 10:09:41;;;;;;;4.88;3.30;;;25.90;99.90;;;;;;4980827;28;20076;-69
2023/06/05 10:12:08;;;;;;;4.25;3.22;;;26.00;99.90;;;;;;4998274;28;20069;-69
2023/06/05 10:14:35;;;;;;;8.80;3.47;;;26.00;99.90;;;;;;4997367;28;20509;-70
2023/06/05 10:17:02;;;;;;;6.20;3.65;;;26.00;99.90;;;;;;4998453;28;20030;-70
2023/06/05 10:19:28;;;;;;;6.30;3.40;;;26.10;99.90;;;;;;4998745;28;20022;-69
2023/06/05 10:21:54;;;;;;;6.90;3.45;;;26.10;99.90;;;;;;4998279;28;20491;-70
2023/06/05 10:24:34;;;;;;;6.47;4.00;;;26.00;99.90;;;;;;4998268;28;20033;-70
2023/06/05 10:27:12;;;;;;;6.00;2.80;;;26.00;99.90;;;;;;4997429;28;20041;-70
2023/06/05 10:30:03;;;;;;;4.05;2.63;;;26.40;99.90;;;;;;4984006;28;20030;-70
2023/06/05 10:32:28;;;;;;;;;;;26.50;99.90;;;;;;4981205;28;20516;-69
2023/06/05 10:35:32;;;;;;;3.88;2.80;;;26.70;99.90;;;;;;4980546;28;20348;-71
2023/06/05 10:38:01;;;;;;;7.07;3.10;;;26.90;99.90;;;;;;4980352;28;20057;-70
2023/06/05 10:40:28;;;;;;;5.93;3.30;;;26.60;99.90;;;;;;4998053;28;20082;-71
2023/06/05 10:42:53;;;;;;;4.38;2.95;;;26.60;99.90;;;;;;4997668;28;20018;-71
2023/06/05 10:45:39;;;;;;;6.80;2.90;;;26.70;99.90;;;;;;4998053;28;20498;-71
2023/06/05 10:48:05;;;;;;;4.20;2.53;;;26.90;99.90;;;;;;4997077;28;20069;-71
2023/06/05 10:50:31;;;;;;;5.72;2.50;;;27.10;99.90;;;;;;4997838;28;20486;-71
2023/06/05 10:52:57;;;;;;;4.93;3.10;;;27.00;99.90;;;;;;4971819;28;20029;-71
2023/06/05 10:55:25;;;;;;;6.53;3.25;;;27.00;99.90;;;;;;4996700;28;20478;-71
2023/06/05 10:58:10;;;;;;;3.13;2.83;;;27.00;99.90;;;;;;4997168;28;20113;-71
2023/06/05 11:00:37;;;;;;;4.82;2.75;;;27.00;99.90;;;;;;4997699;28;20447;-71
2023/06/05 11:03:03;;;;;;;6.18;3.10;;;26.90;99.90;;;;;;4997595;28;20499;-69
2023/06/05 11:05:29;;;;;;;4.50;3.03;;;26.90;99.90;;;;;;4982256;28;20061;-69
2023/06/05 11:08:14;;;;;;;6.55;3.17;;;27.10;99.90;;;;;;4997839;28;20019;-70
2023/06/05 11:11:09;;;;;;;5.10;2.95;;;27.20;99.90;;;;;;4979842;28;20026;-70
2023/06/05 11:13:56;;;;;;;5.15;2.80;;;27.30;99.90;;;;;;4994875;28;20037;-69
2023/06/05 11:16:30;;;;;;;3.65;2.60;;;27.50;99.90;;;;;;4990937;28;20039;-69
2023/06/05 11:19:20;;;;;;;3.58;2.60;;;27.50;99.90;;;;;;4997540;28;20029;-69
2023/06/05 11:22:08;;;;;;;3.07;2.40;;;27.40;99.90;;;;;;4968457;28;20034;-69
2023/06/05 11:24:35;;;;;;;4.55;2.65;;;27.80;99.90;;;;;;4970065;28;20031;-69
2023/06/05 11:27:03;;;;;;;3.85;2.80;;;27.80;99.90;;;;;;4996915;28;20537;-69
2023/06/05 11:29:29;;;;;;;4.35;2.25;;;27.80;99.90;;;;;;4997375;28;20458;-70
2023/06/05 11:31:55;;;;;;;3.97;2.58;;;27.90;99.90;;;;;;4997530;28;20144;-69
2023/06/05 11:34:21;;;;;;;5.88;2.45;;;27.90;99.90;;;;;;4979488;28;20058;-70
2023/06/05 11:36:47;;;;;;;4.18;2.80;;;27.80;99.90;;;;;;4997515;28;20022;-70
2023/06/05 11:39:13;;;;;;;3.08;2.00;;;27.60;99.90;;;;;;4999672;28;20089;-70
2023/06/05 11:41:50;;;;;;;3.42;2.10;;;27.90;99.90;;;;;;5001286;28;20115;-69
2023/06/05 11:44:31;;;;;;;3.25;1.90;;;27.90;99.90;;;;;;5001259;28;20105;-69
2023/06/05 11:46:56;;;;;;;;;;;27.90;99.90;;;;;;5001980;28;20023;-70
2023/06/05 11:49:29;;;;;;;3.30;2.38;;;27.90;99.30;;;;;;5001159;28;20340;-69
2023/06/05 11:51:56;;;;;;;3.90;2.67;;;27.90;99.70;;;;;;4983653;28;20035;-70
2023/06/05 11:54:29;;;;;;;5.07;2.70;;;28.10;99.90;;;;;;4983528;28;20077;-69
2023/06/05 11:57:07;;;;;;;3.60;2.50;;;28.20;99.90;;;;;;5000505;28;20046;-69
2023/06/05 11:59:34;;;;;;;3.97;2.10;;;28.50;99.90;;;;;;5001200;28;20041;-69
2023/06/05 12:02:00;;;;;;;6.38;2.60;;;28.40;99.90;;;;;;5000824;28;20352;-69
2023/06/05 12:04:26;;;;;;;4.75;2.92;;;28.10;99.90;;;;;;4983399;28;20023;-68
2023/06/05 12:06:53;;;;;;;3.60;2.10;;;28.00;99.00;;;;;;5000673;28;20038;-69
2023/06/05 12:09:19;;;;;;;5.45;2.92;;;27.90;99.90;;;;;;5000741;28;20497;-69
2023/06/05 12:11:45;;;;;;;3.03;2.30;;;27.80;98.00;;;;;;5000324;28;20022;-68
2023/06/05 12:14:13;;;;;;;3.80;2.35;;;27.60;97.70;;;;;;5000806;28;20027;-68
2023/06/05 12:16:45;;;;;;;5.38;2.92;;;27.90;98.70;;;;;;5000545;28;20014;-69
2023/06/05 12:19:17;;;;;;;4.07;2.58;;;27.90;99.10;;;;;;5000641;28;20022;-69
2023/06/05 12:21:48;;;;;;;5.97;2.53;;;27.90;99.90;;;;;;5000229;28;20081;-70
2023/06/05 12:24:15;;;;;;;3.35;1.90;;;28.30;99.60;;;;;;5000408;28;20025;-69
2023/06/05 12:26:58;;;;;;;7.03;2.50;;;28.40;98.40;;;;;;4999697;28;20117;-69
2023/06/05 12:29:31;;;;;;;4.97;2.22;;;28.60;99.20;;;;;;5000224;28;20506;-69
2023/06/05 12:31:59;;;;;;;4.75;2.55;;;28.70;96.90;;;;;;4990040;28;20033;-69
2023/06/05 12:34:47;;;;;;;4.22;2.40;;;28.40;97.60;;;;;;4998827;28;20046;-69
2023/06/05 12:37:29;;;;;;;6.55;2.33;;;27.90;97.10;;;;;;4999902;28;20077;-69
2023/06/05 12:39:56;;;;;;;2.80;1.88;;;27.40;97.40;;;;;;4999843;28;20060;-69
2023/06/05 12:42:21;;;;;;;4.45;2.05;;;27.30;98.40;;;;;;4999463;28;20026;-69
2023/06/05 12:44:47;;;;;;;3.05;1.65;;;27.10;99.30;;;;;;4982187;28;20032;-69
2023/06/05 12:47:13;;;;;;;6.68;1.92;;;27.10;99.90;;;;;;5000204;28;20034;-69
2023/06/05 12:49:39;;;;;;;4.18;2.20;;;27.10;99.90;;;;;;4999090;28;20034;-69
2023/06/05 12:52:08;;;;;;;3.80;1.85;;;27.20;99.90;;;;;;4982281;28;20057;-69